Station Historical Data
Daily Summary for November 30, 2017 Units:  Metric    English   Both
« Previous Day
Next Day »
Daily Weekly Monthly Yearly Custom
  High: Low: Average:
Temperature: 11.8 °C -4 °C 4.1 °C
Dew Point: 6.2 °C -6.2 °C -0.1 °C
Humidity: 88% 53% 76%
Wind Speed: 27.4km/h 0km/h 6.6km/h
Wind Gust: 33.8km/h - -
Wind- - SW
Pressure: 1024.9 hPa 1010.4 hPa -
Precipitation: 0 mm    
Historical Graphs
 
 
Tabular Data for November 30, 2017
Time Temperature Dew Point Pressure Wind Wind Speed Wind Gust Humidity Rainfall Rate (Hourly)
00:09 -1.7 °C -4.6 °C 1024.6 hPa ESE 6.4 km/h 6.4 km/h 81% 0 mm
00:14 -1.7 °C -4.7 °C 1024.3 hPa Calm   8 km/h 80% 0 mm
00:19 -1.7 °C -4.7 °C 1024.6 hPa ESE 1.6 km/h 8 km/h 80% 0 mm
00:29 -1.8 °C -4.8 °C 1024.6 hPa Calm     80% 0 mm
00:34 -1.9 °C -4.9 °C 1024.9 hPa Calm     80% 0 mm
00:39 -2.1 °C -5.1 °C 1024.6 hPa Calm     80% 0 mm
00:49 -2.2 °C -5.1 °C 1024.6 hPa South 1.6 km/h 6.4 km/h 81% 0 mm
00:59 -2.6 °C -5.4 °C 1024.9 hPa Calm   3.2 km/h 81% 0 mm
01:04 -2.7 °C -5.3 °C 1024.6 hPa Calm     82% 0 mm
01:09 -2.8 °C -5.5 °C 1024.6 hPa Calm     82% 0 mm
01:14 -2.8 °C -5.5 °C 1024.6 hPa Calm     82% 0 mm
01:19 -2.8 °C -5.3 °C 1024.6 hPa Calm     83% 0 mm
01:24 -2.8 °C -5.3 °C 1024.6 hPa Calm   3.2 km/h 83% 0 mm
01:29 -2.4 °C -4.9 °C 1024.3 hPa Calm   4.8 km/h 83% 0 mm
01:34 -2.1 °C -4.6 °C 1024.3 hPa South 1.6 km/h 4.8 km/h 83% 0 mm
01:39 -1.9 °C -4.6 °C 1024.3 hPa South 1.6 km/h 9.7 km/h 82% 0 mm
01:44 -1.8 °C -4.4 °C 1024.3 hPa South 1.6 km/h 9.7 km/h 82% 0 mm
01:49 -1.7 °C -4.6 °C 1024.3 hPa South 1.6 km/h 4.8 km/h 81% 0 mm
01:54 -1.8 °C -4.6 °C 1023.9 hPa South 1.6 km/h 4.8 km/h 81% 0 mm
01:59 -1.9 °C -4.7 °C 1023.6 hPa Calm   3.2 km/h 81% 0 mm
02:09 -1.9 °C -4.7 °C 1023.6 hPa Calm   4.8 km/h 81% 0 mm
02:19 -1.8 °C -4.7 °C 1023.2 hPa Calm   6.4 km/h 81% 0 mm
02:29 -2 °C -4.8 °C 1022.9 hPa Calm     81% 0 mm
02:34 -2.1 °C -4.9 °C 1022.9 hPa Calm     81% 0 mm
02:39 -2.1 °C -4.9 °C 1022.9 hPa Calm     81% 0 mm
02:49 -2.1 °C -4.8 °C 1023.2 hPa Calm   3.2 km/h 82% 0 mm
02:54 -2.1 °C -4.8 °C 1022.9 hPa Calm   6.4 km/h 82% 0 mm
02:59 -2.1 °C -4.9 °C 1022.9 hPa Calm   6.4 km/h 81% 0 mm
03:14 -1.8 °C -4.6 °C 1022.6 hPa Calm   3.2 km/h 81% 0 mm
03:19 -1.8 °C -4.7 °C 1022.6 hPa Calm   1.6 km/h 81% 0 mm
03:24 -1.9 °C -4.8 °C 1022.6 hPa Calm     81% 0 mm
03:29 -2.1 °C -4.9 °C 1022.6 hPa Calm     81% 0 mm
03:34 -2.2 °C -4.9 °C 1022.2 hPa Calm     82% 0 mm
03:39 -2.2 °C -4.9 °C 1022.2 hPa Calm     82% 0 mm
03:44 -2.3 °C -5 °C 1021.9 hPa Calm     82% 0 mm
03:54 -2.4 °C -5.1 °C 1021.9 hPa Calm     82% 0 mm
04:04 -2.6 °C -5.1 °C 1021.9 hPa Calm     83% 0 mm
04:09 -2.8 °C -5.3 °C 1021.6 hPa Calm     83% 0 mm
04:14 -2.8 °C -5.3 °C 1021.6 hPa Calm     83% 0 mm
04:19 -3.1 °C -5.6 °C 1021.6 hPa Calm     83% 0 mm
04:24 -3.3 °C -5.8 °C 1021.6 hPa Calm     83% 0 mm
04:29 -3.6 °C -6 °C 1021.6 hPa Calm     83% 0 mm
04:39 -3.7 °C -6.1 °C 1021.2 hPa Calm     84% 0 mm
04:44 -3.7 °C -5.9 °C 1021.2 hPa Calm     85% 0 mm
04:49 -3.8 °C -6 °C 1021.2 hPa Calm     85% 0 mm
04:59 -4 °C -6.2 °C 1021.2 hPa Calm     85% 0 mm
05:04 -4 °C -6.2 °C 1021.2 hPa Calm     85% 0 mm
05:09 -3.7 °C -5.5 °C 1020.9 hPa Calm   3.2 km/h 87% 0 mm
05:14 -3.4 °C -5.4 °C 1020.9 hPa Calm   3.2 km/h 86% 0 mm
05:19 -3.3 °C -5.3 °C 1020.5 hPa Calm   1.6 km/h 86% 0 mm
05:24 -3.3 °C -5.3 °C 1020.5 hPa Calm     86% 0 mm
05:44 -3.4 °C -5.6 °C 1020.5 hPa Calm     85% 0 mm
05:49 -3.4 °C -5.4 °C 1020.2 hPa Calm     86% 0 mm
05:59 -2.9 °C -4.9 °C 1020.2 hPa Calm     86% 0 mm
06:04 -2.7 °C -4.9 °C 1020.2 hPa Calm     85% 0 mm
06:14 -3.1 °C -5.3 °C 1019.9 hPa Calm     85% 0 mm
06:24 -3 °C -5 °C 1019.5 hPa Calm     86% 0 mm
06:29 -2.9 °C -5.1 °C 1019.9 hPa Calm     85% 0 mm
06:54 -2.8 °C -5 °C 1019.5 hPa Calm     85% 0 mm
06:59 -2.7 °C -4.7 °C 1019.2 hPa Calm     86% 0 mm
07:04 -2.4 °C -4.4 °C 1018.8 hPa Calm   6.4 km/h 86% 0 mm
07:09 -2.2 °C -4.4 °C 1019.2 hPa Calm     85% 0 mm
07:14 -2.3 °C -4.6 °C 1019.2 hPa Calm   4.8 km/h 84% 0 mm
07:19 -2.1 °C -4.4 °C 1018.8 hPa Calm   3.2 km/h 84% 0 mm
07:29 -2.3 °C -5 °C 1019.2 hPa Calm     82% 0 mm
07:34 -2.7 °C -5.2 °C 1018.8 hPa Calm     83% 0 mm
07:39 -2.9 °C -5.4 °C 1018.8 hPa Calm     83% 0 mm
07:54 -2.6 °C -4.8 °C 1018.2 hPa Calm     85% 0 mm
08:04 -1.8 °C -3.9 °C 1018.2 hPa Calm     85% 0 mm
08:09 -1.3 °C -3.6 °C 1018.2 hPa Calm     84% 0 mm
08:14 -0.8 °C -3.3 °C 1017.8 hPa Calm   8 km/h 83% 0 mm
08:19 -0.1 °C -2.8 °C 1017.8 hPa South 1.6 km/h 8 km/h 82% 0 mm
08:24 0.2 °C -2.8 °C 1017.8 hPa SSW 1.6 km/h 3.2 km/h 80% 0 mm
08:29 0.6 °C -2.7 °C 1017.8 hPa SSW 1.6 km/h 4.8 km/h 79% 0 mm
08:34 1.1 °C -2.6 °C 1017.5 hPa SSW 1.6 km/h 4.8 km/h 77% 0 mm
08:39 1.8 °C -2.1 °C 1017.5 hPa Calm   6.4 km/h 75% 0 mm
08:44 2.4 °C -2.1 °C 1017.5 hPa SSW 1.6 km/h 6.4 km/h 72% 0 mm
08:49 3.1 °C -1.8 °C 1017.2 hPa South 4.8 km/h 6.4 km/h 70% 0 mm
09:04 4 °C -1.6 °C 1017.2 hPa South 1.6 km/h 4.8 km/h 67% 0 mm
09:09 4.4 °C -1.2 °C 1016.8 hPa SSW 1.6 km/h 6.4 km/h 67% 0 mm
09:14 5.2 °C -0.8 °C 1016.8 hPa South 4.8 km/h 11.3 km/h 65% 0 mm
09:29 6.9 °C -0.1 °C 1016.5 hPa South 9.7 km/h 14.5 km/h 61% 0 mm
09:34 7.3 °C 0.2 °C 1016.1 hPa South 8 km/h 14.5 km/h 61% 0 mm
09:39 7.7 °C 0.4 °C 1016.1 hPa SSW 8 km/h 16.1 km/h 60% 0 mm
09:44 7.8 °C 0.6 °C 1016.1 hPa SSW 11.3 km/h 19.3 km/h 60% 0 mm
09:54 7.9 °C 0.7 °C 1015.8 hPa South 6.4 km/h 19.3 km/h 60% 0 mm
09:59 8.1 °C 0.8 °C 1015.8 hPa South 9.7 km/h 14.5 km/h 60% 0 mm
10:04 8.2 °C 0.8 °C 1015.5 hPa South 9.7 km/h 14.5 km/h 60% 0 mm
10:09 8.3 °C 0.9 °C 1015.8 hPa South 8 km/h 14.5 km/h 60% 0 mm
10:24 8.5 °C 0.9 °C 1015.1 hPa South 9.7 km/h 22.5 km/h 59% 0 mm
10:29 8.7 °C 1.1 °C 1015.1 hPa South 14.5 km/h 19.3 km/h 59% 0 mm
10:34 8.7 °C 1.2 °C 1014.8 hPa South 12.9 km/h 16.1 km/h 59% 0 mm
10:44 8.9 °C 1.1 °C 1014.8 hPa South 9.7 km/h 24.1 km/h 58% 0 mm
10:49 8.9 °C 1.3 °C 1014.4 hPa South 8 km/h 24.1 km/h 59% 0 mm
10:54 9.1 °C 1.2 °C 1014.4 hPa SSW 4.8 km/h 19.3 km/h 58% 0 mm
11:04 9.4 °C 1.6 °C 1014.1 hPa South 4.8 km/h 16.1 km/h 58% 0 mm
11:09 9.6 °C 1.7 °C 1014.1 hPa SSW 14.5 km/h 17.7 km/h 58% 0 mm
11:19 9.5 °C 1.4 °C 1013.8 hPa South 8 km/h 20.9 km/h 57% 0 mm
11:24 9.6 °C 1.7 °C 1013.4 hPa SSW 14.5 km/h 19.3 km/h 58% 0 mm
11:34 9.8 °C 1.9 °C 1013.4 hPa SSE 14.5 km/h 17.7 km/h 58% 0 mm
11:39 9.9 °C 2.1 °C 1013.1 hPa SW 14.5 km/h 14.5 km/h 58% 0 mm
11:44 10.2 °C 2.1 °C 1013.1 hPa South 6.4 km/h 20.9 km/h 57% 0 mm
11:49 10.4 °C 2.3 °C 1013.1 hPa South 9.7 km/h 20.9 km/h 57% 0 mm
11:54 10.7 °C 2.2 °C 1012.8 hPa SSW 8 km/h 22.5 km/h 56% 0 mm
12:04 11 °C 2.3 °C 1012.4 hPa South 12.9 km/h 29 km/h 55% 0 mm
12:14 11.1 °C 2.3 °C 1012.4 hPa SSW 17.7 km/h 22.5 km/h 55% 0 mm
12:19 11.1 °C 2.1 °C 1012.1 hPa SSW 12.9 km/h 27.4 km/h 54% 0 mm
12:24 11.1 °C 2.1 °C 1012.1 hPa SSE 6.4 km/h 25.7 km/h 54% 0 mm
12:29 11 °C 2.1 °C 1012.1 hPa South 12.9 km/h 29 km/h 54% 0 mm
12:34 11.1 °C 2.1 °C 1012.1 hPa SSW 16.1 km/h 22.5 km/h 54% 0 mm
12:39 11.2 °C 2.2 °C 1011.7 hPa South 8 km/h 17.7 km/h 54% 0 mm
12:44 11.3 °C 2.3 °C 1011.7 hPa South 12.9 km/h 24.1 km/h 54% 0 mm
12:49 11.3 °C 2.3 °C 1011.7 hPa South 9.7 km/h 32.2 km/h 54% 0 mm
13:14 11.6 °C 2.3 °C 1011.1 hPa South 4.8 km/h 19.3 km/h 53% 0 mm
13:19 11.7 °C 2.4 °C 1011.1 hPa South 19.3 km/h 25.7 km/h 53% 0 mm
13:29 11.8 °C 2.6 °C 1010.7 hPa SSW 11.3 km/h 22.5 km/h 53% 0 mm
13:44 11.7 °C 2.4 °C 1010.7 hPa SSW 11.3 km/h 27.4 km/h 53% 0 mm
13:49 11.7 °C 2.4 °C 1010.7 hPa South 8 km/h 19.3 km/h 53% 0 mm
13:59 11.7 °C 2.4 °C 1010.7 hPa SSW 9.7 km/h 20.9 km/h 53% 0 mm
14:04 11.6 °C 2.6 °C 1010.4 hPa SW 9.7 km/h 20.9 km/h 54% 0 mm
14:14 11.5 °C 3 °C 1010.4 hPa SSW 11.3 km/h 25.7 km/h 56% 0 mm
14:19 11.4 °C 3.2 °C 1010.4 hPa SSW 11.3 km/h 25.7 km/h 57% 0 mm
14:24 11.3 °C 3.1 °C 1010.4 hPa SW 11.3 km/h 24.1 km/h 57% 0 mm
14:29 11.2 °C 3.5 °C 1010.4 hPa SW 9.7 km/h 20.9 km/h 59% 0 mm
14:34 11.2 °C 3.4 °C 1010.7 hPa SW 9.7 km/h 22.5 km/h 59% 0 mm
14:49 10.7 °C 5.2 °C 1010.4 hPa West 14.5 km/h 27.4 km/h 69% 0 mm
15:09 9.3 °C 5.3 °C 1011.1 hPa WSW 14.5 km/h 30.6 km/h 76% 0.25 mm
15:14 9.1 °C 5.2 °C 1011.1 hPa WSW 12.9 km/h 25.7 km/h 77% 0.25 mm
15:19 8.8 °C 5.4 °C 1011.1 hPa WSW 11.3 km/h 25.7 km/h 79% 0.51 mm
15:24 8.7 °C 5.4 °C 1011.1 hPa WSW 9.7 km/h 19.3 km/h 80% 0.51 mm
15:34 8.5 °C 5.4 °C 1011.1 hPa WNW 6.4 km/h 16.1 km/h 81% 0.76 mm
15:39 8.4 °C 5.5 °C 1011.1 hPa WSW 9.7 km/h 17.7 km/h 82% 0.76 mm
15:44 8.3 °C 5.6 °C 1011.4 hPa WSW 11.3 km/h 20.9 km/h 83% 1.02 mm
15:49 8.2 °C 5.5 °C 1011.4 hPa WSW 11.3 km/h 24.1 km/h 83% 1.27 mm
15:59 8.1 °C 5.5 °C 1011.7 hPa WNW 9.7 km/h 33.8 km/h 84% 1.52 mm
16:04 8 °C 5.6 °C 1011.7 hPa WNW 11.3 km/h 27.4 km/h 85% 2.03 mm
16:14 7.9 °C 5.5 °C 1011.4 hPa WSW 12.9 km/h 29 km/h 85% 2.29 mm
16:19 7.8 °C 5.6 °C 1011.7 hPa WSW 14.5 km/h 29 km/h 86% 2.03 mm
16:24 7.8 °C 5.6 °C 1011.4 hPa SW 9.7 km/h 29 km/h 86% 2.03 mm
16:34 7.8 °C 5.7 °C 1011.4 hPa WSW 20.9 km/h 24.1 km/h 87% 1.78 mm
16:44 7.8 °C 5.7 °C 1011.4 hPa West 16.1 km/h 29 km/h 87% 1.78 mm
16:49 7.8 °C 5.7 °C 1011.7 hPa WSW 12.9 km/h 29 km/h 87% 1.52 mm
16:59 7.8 °C 5.9 °C 1011.7 hPa WSW 14.5 km/h 32.2 km/h 88% 1.27 mm
17:14 7.9 °C 6.1 °C 1012.1 hPa WSW 12.9 km/h 27.4 km/h 88% 0.25 mm
17:19 8 °C 6.1 °C 1012.1 hPa SW 17.7 km/h 27.4 km/h 88% 0.25 mm
17:24 8 °C 6.1 °C 1012.1 hPa West 17.7 km/h 32.2 km/h 88% 0.25 mm
17:34 8.1 °C 6.2 °C 1012.4 hPa West 8 km/h 33.8 km/h 88% 0.25 mm
17:39 8.1 °C 6.2 °C 1012.8 hPa NW 24.1 km/h 29 km/h 88% 0 mm
17:54 7.9 °C 5.8 °C 1013.1 hPa West 14.5 km/h 32.2 km/h 87% 0 mm
17:59 7.8 °C 5.7 °C 1013.1 hPa West 16.1 km/h 30.6 km/h 87% 0 mm
18:04 7.7 °C 5.7 °C 1013.4 hPa West 14.5 km/h 30.6 km/h 87% 0 mm
18:09 7.6 °C 5.6 °C 1013.4 hPa West 12.9 km/h 27.4 km/h 87% 0 mm
18:14 7.5 °C 5.5 °C 1013.4 hPa West 12.9 km/h 29 km/h 87% 0 mm
18:24 7.3 °C 5.1 °C 1014.1 hPa NW 27.4 km/h 33.8 km/h 86% 0 mm
18:34 7 °C 4.8 °C 1014.1 hPa West 12.9 km/h 30.6 km/h 86% 0 mm
18:39 6.9 °C 4.7 °C 1014.1 hPa West 12.9 km/h 19.3 km/h 86% 0 mm
18:49 6.7 °C 4.4 °C 1014.4 hPa West 11.3 km/h 16.1 km/h 85% 0 mm
18:59 6.7 °C 4.2 °C 1014.4 hPa WNW 11.3 km/h 24.1 km/h 84% 0 mm
19:04 6.7 °C 4 °C 1014.8 hPa West 11.3 km/h 24.1 km/h 83% 0 mm
19:09 6.6 °C 3.8 °C 1015.1 hPa West 11.3 km/h 27.4 km/h 82% 0 mm
19:14 6.6 °C 3.8 °C 1014.8 hPa West 11.3 km/h 27.4 km/h 82% 0 mm
19:19 6.6 °C 3.5 °C 1015.1 hPa WSW 4.8 km/h 16.1 km/h 81% 0 mm
19:24 6.6 °C 3.4 °C 1015.5 hPa West 4.8 km/h 12.9 km/h 80% 0 mm
19:34 6.6 °C 3.4 °C 1015.5 hPa West 4.8 km/h 14.5 km/h 80% 0 mm
19:39 6.6 °C 3.4 °C 1015.5 hPa West 8 km/h 16.1 km/h 80% 0 mm
19:44 6.6 °C 3.3 °C 1015.5 hPa West 6.4 km/h 16.1 km/h 80% 0 mm
19:59 6.6 °C 3.3 °C 1015.8 hPa WSW 12.9 km/h 12.9 km/h 80% 0 mm
20:09 6.5 °C 3.3 °C 1016.1 hPa WSW 9.7 km/h 19.3 km/h 80% 0 mm
20:19 6.5 °C 3.1 °C 1016.1 hPa WSW 9.7 km/h 16.1 km/h 79% 0 mm
20:29 6.5 °C 2.9 °C 1016.1 hPa WSW 11.3 km/h 20.9 km/h 78% 0 mm
20:39 6.6 °C 3 °C 1016.5 hPa West 3.2 km/h 20.9 km/h 78% 0 mm
20:44 6.6 °C 3 °C 1016.5 hPa WSW 9.7 km/h 20.9 km/h 78% 0 mm
20:49 6.6 °C 3 °C 1016.5 hPa West 8 km/h 19.3 km/h 78% 0 mm
20:54 6.6 °C 3 °C 1016.5 hPa West 9.7 km/h 19.3 km/h 78% 0 mm
21:04 6.7 °C 3.1 °C 1016.5 hPa WNW 9.7 km/h 20.9 km/h 78% 0 mm
21:09 6.7 °C 3.1 °C 1016.5 hPa WSW 9.7 km/h 33.8 km/h 78% 0 mm
21:14 6.7 °C 3.1 °C 1016.5 hPa WSW 9.7 km/h 20.9 km/h 78% 0 mm
21:19 6.7 °C 2.9 °C 1016.5 hPa West 11.3 km/h 20.9 km/h 77% 0 mm
21:24 6.6 °C 2.8 °C 1016.8 hPa West 11.3 km/h 20.9 km/h 77% 0 mm
21:34 6.5 °C 2.8 °C 1016.8 hPa West 9.7 km/h 19.3 km/h 77% 0 mm
21:49 6.4 °C 2.4 °C 1016.8 hPa West 9.7 km/h 19.3 km/h 76% 0 mm
21:59 6.3 °C 2.4 °C 1016.8 hPa WSW 12.9 km/h 19.3 km/h 76% 0 mm
22:04 6.3 °C 2.2 °C 1016.8 hPa WSW 8 km/h 16.1 km/h 75% 0 mm
22:19 6.3 °C 2 °C 1016.8 hPa WSW 6.4 km/h 19.3 km/h 74% 0 mm
22:24 6.3 °C 2 °C 1016.8 hPa West 8 km/h 16.1 km/h 74% 0 mm
22:29 6.3 °C 2 °C 1016.8 hPa West 8 km/h 16.1 km/h 74% 0 mm
22:39 6.3 °C 1.8 °C 1016.8 hPa WSW 6.4 km/h 16.1 km/h 73% 0 mm
22:49 6.3 °C 1.8 °C 1017.2 hPa West 6.4 km/h 19.3 km/h 73% 0 mm
22:54 6.3 °C 1.8 °C 1017.2 hPa WSW 9.7 km/h 12.9 km/h 73% 0 mm
22:59 6.3 °C 2 °C 1017.2 hPa West 8 km/h 14.5 km/h 74% 0 mm
23:04 6.3 °C 2 °C 1017.2 hPa WSW 17.7 km/h 17.7 km/h 74% 0 mm
23:19 6.3 °C 1.8 °C 1017.5 hPa WNW 6.4 km/h 16.1 km/h 73% 0 mm
23:24 6.3 °C 1.8 °C 1017.5 hPa West 8 km/h 16.1 km/h 73% 0 mm
23:29 6.3 °C 1.8 °C 1017.5 hPa West 8 km/h 16.1 km/h 73% 0 mm
23:34 6.3 °C 1.8 °C 1017.5 hPa West 8 km/h 16.1 km/h 73% 0 mm
23:39 6.2 °C 1.7 °C 1017.5 hPa West 8 km/h 16.1 km/h 73% 0 mm
23:44 6.2 °C 1.6 °C 1017.5 hPa West 9.7 km/h 16.1 km/h 72% 0 mm
23:54 6.2 °C 1.7 °C 1017.5 hPa West 1.6 km/h 14.5 km/h 73% 0 mm
23:59 6.2 °C 1.7 °C 1017.5 hPa West 6.4 km/h 16.1 km/h 73% 0 mm
Buffalo, New York, USA
Compliments of Weather Underground - 2 mb